Time;durP1;ratioP1;P1;durP2;ratioP2;P2;SDS_P1;SDS_P2;PMS_P1;PMS_P2;Temp;Humidity;BMP_temperature;BMP_pressure;BME280_temperature;BME280_humidity;BME280_pressure;Samples;Min_cycle;Max_cycle;Signal;HPM_P1;HPM_P2
2022/06/12 00:00:32;;;;;;;6.17;2.17;;;-14.30;93.60;;;;;;5137482;27;20171;-66
2022/06/12 00:03:00;;;;;;;3.40;1.70;;;-17.20;92.80;;;;;;5137228;27;20565;-71
2022/06/12 00:05:29;;;;;;;6.83;2.10;;;-19.30;93.10;;;;;;5137275;27;20184;-67
2022/06/12 00:07:54;;;;;;;3.67;2.30;;;-18.20;95.10;;;;;;5135992;27;20200;-72
2022/06/12 00:10:20;;;;;;;6.33;2.03;;;-17.70;95.50;;;;;;5137223;27;20162;-68
2022/06/12 00:12:47;;;;;;;4.87;1.77;;;-18.80;96.00;;;;;;5136883;27;20644;-67
2022/06/12 00:15:17;;;;;;;7.17;2.47;;;-21.90;96.40;;;;;;5137204;27;20162;-66
2022/06/12 00:17:43;;;;;;;8.87;3.20;;;-20.70;98.90;;;;;;5137101;27;20154;-67
2022/06/12 00:20:12;;;;;;;7.20;2.40;;;-18.20;99.90;;;;;;5137082;27;20164;-65
2022/06/12 00:22:39;;;;;;;5.47;2.80;;;-24.50;99.90;;;;;;5135394;27;20185;-63
2022/06/12 00:25:09;;;;;;;5.57;3.30;;;-21.60;99.90;;;;;;5137011;27;20162;-64
2022/06/12 00:27:36;;;;;;;6.37;2.90;;;-18.30;99.90;;;;;;5136880;27;20170;-66
2022/06/12 00:30:04;;;;;;;3.37;2.40;;;-20.10;99.90;;;;;;5137050;27;20524;-65
2022/06/12 00:32:30;;;;;;;14.47;2.53;;;-27.40;99.90;;;;;;5136661;27;20222;-68
2022/06/12 00:34:57;;;;;;;3.50;3.00;;;-21.50;99.90;;;;;;5136778;27;20189;-64
2022/06/12 00:37:25;;;;;;;5.67;2.73;;;-21.50;99.90;;;;;;5135987;27;20181;-68
2022/06/12 00:39:53;;;;;;;3.90;3.33;;;-28.50;99.90;;;;;;5136409;27;20697;-64
2022/06/12 00:42:30;;;;;;;7.23;3.30;;;-27.40;99.90;;;;;;5136571;27;20165;-64
2022/06/12 00:44:59;;;;;;;2.83;2.30;;;-22.50;99.90;;;;;;5136701;27;20186;-64
2022/06/12 00:47:25;;;;;;;7.00;3.10;;;-27.60;99.90;;;;;;5136680;27;20169;-64
2022/06/12 00:49:54;;;;;;;11.63;3.33;;;-24.80;99.90;;;;;;5136605;27;20584;-67
2022/06/12 00:52:32;;;;;;;8.43;3.47;;;-21.20;99.90;;;;;;5135388;27;20222;-65
2022/06/12 00:55:05;;;;;;;2.63;2.20;;;-23.00;99.90;;;;;;5136311;27;20175;-67
2022/06/12 00:57:32;;;;;;;3.67;2.17;;;-30.80;99.90;;;;;;5136545;27;20173;-66
2022/06/12 01:00:07;;;;;;;22.23;2.40;;;-27.60;99.90;;;;;;5136513;27;20168;-68
2022/06/12 01:02:34;;;;;;;6.57;2.73;;;-26.30;99.90;;;;;;5136450;27;20248;-65
2022/06/12 01:07:57;;;;;;;4.53;2.17;;;-19.20;99.90;;;;;;5136609;28;20204;-64
2022/06/12 01:10:25;;;;;;;5.67;2.43;;;-23.90;99.90;;;;;;5135197;28;20207;-72
2022/06/12 01:12:58;;;;;;;5.57;2.37;;;-25.50;99.90;;;;;;5136200;27;20242;-64
2022/06/12 01:15:30;;;;;;;6.53;2.10;;;-25.30;99.90;;;;;;5136525;27;20514;-63
2022/06/12 01:17:58;;;;;;;4.33;2.60;;;-18.70;99.90;;;;;;5136305;28;20172;-69
2022/06/12 01:20:30;;;;;;;4.33;2.00;;;-23.00;99.90;;;;;;5136349;27;20564;-67
2022/06/12 01:23:33;;;;;;;6.33;1.93;;;-22.10;99.90;;;;;;5136208;28;20536;-72
2022/06/12 01:26:34;;;;;;;3.93;2.17;;;-27.50;99.90;;;;;;5136404;28;20210;-64
2022/06/12 01:29:18;;;;;;;3.30;1.90;;;-22.20;99.90;;;;;;5127601;28;20192;-69
2022/06/12 01:32:00;;;;;;;4.07;2.03;;;-23.10;99.90;;;;;;5136328;28;20170;-69
2022/06/12 01:34:44;;;;;;;3.40;1.43;;;-21.30;99.90;;;;;;5135990;27;20242;-64
2022/06/12 01:37:37;;;;;;;4.43;2.53;;;-24.40;99.90;;;;;;5136163;28;20522;-71
2022/06/12 01:40:30;;;;;;;3.40;1.93;;;-19.80;99.90;;;;;;5135768;28;20481;-63
2022/06/12 01:43:07;;;;;;;3.03;2.13;;;-18.40;99.90;;;;;;5132797;28;20181;-63
2022/06/12 01:45:41;;;;;;;3.47;1.70;;;-21.10;99.90;;;;;;5135158;28;20184;-69
2022/06/12 01:48:16;;;;;;;3.67;2.33;;;-23.70;99.90;;;;;;5136063;28;20600;-66
2022/06/12 01:50:55;;;;;;;5.30;2.37;;;-23.00;99.90;;;;;;5139958;27;20169;-70
2022/06/12 01:53:35;;;;;;;5.37;2.60;;;-23.60;99.90;;;;;;5139535;27;20495;-64
2022/06/12 01:56:19;;;;;;;5.87;2.13;;;-20.60;99.90;;;;;;5139771;27;20169;-63
2022/06/12 01:59:06;;;;;;;9.50;2.23;;;-19.60;99.90;;;;;;5139721;27;20198;-63
2022/06/12 02:01:53;;;;;;;6.80;1.87;;;-19.40;99.90;;;;;;5139793;27;20166;-73
2022/06/12 02:04:33;;;;;;;8.80;2.97;;;-18.10;99.90;;;;;;5138290;27;20191;-65
2022/06/12 02:07:16;;;;;;;7.30;2.80;;;-17.60;99.90;;;;;;5139250;27;20181;-64
2022/06/12 02:09:45;;;;;;;3.43;1.97;;;-20.90;99.90;;;;;;5139511;27;20210;-65
2022/06/12 02:15:20;;;;;;;7.53;3.50;;;-17.90;99.90;;;;;;5139621;27;20237;-64
2022/06/12 02:18:07;;;;;;;5.90;3.03;;;-21.80;99.90;;;;;;5139706;27;20162;-65
2022/06/12 02:20:37;;;;;;;9.00;2.27;;;-20.90;99.90;;;;;;5139599;27;20197;-69
2022/06/12 02:23:11;;;;;;;4.97;2.43;;;-21.50;99.90;;;;;;5138063;27;20209;-67
2022/06/12 02:25:40;;;;;;;3.03;1.77;;;-23.60;99.90;;;;;;5139368;27;20172;-67
2022/06/12 02:28:15;;;;;;;7.53;2.00;;;-24.70;99.90;;;;;;5139305;27;20189;-67
2022/06/12 02:30:44;;;;;;;15.37;2.50;;;-23.40;99.90;;;;;;5139159;27;20169;-66
2022/06/12 02:33:22;;;;;;;4.17;1.97;;;-19.80;99.90;;;;;;5139204;27;20207;-65
2022/06/12 02:35:54;;;;;;;5.43;2.63;;;-16.20;99.90;;;;;;5139071;27;20580;-65
2022/06/12 02:38:40;;;;;;;8.80;2.70;;;-19.10;99.90;;;;;;5138879;27;20201;-67
2022/06/12 02:41:18;;;;;;;5.43;1.90;;;-17.50;99.90;;;;;;5139031;27;20164;-68
2022/06/12 02:43:46;;;;;;;3.43;1.47;;;-17.00;99.90;;;;;;5139198;27;20165;-66
2022/06/12 02:46:18;;;;;;;7.27;2.90;;;-18.40;99.90;;;;;;5137865;27;20216;-65
2022/06/12 02:48:44;;;;;;;3.20;1.97;;;-20.20;99.90;;;;;;5139107;27;20564;-65
2022/06/12 02:51:21;;;;;;;2.83;1.87;;;-19.30;99.90;;;;;;5138521;27;20172;-65
2022/06/12 02:54:06;;;;;;;5.03;2.10;;;-18.60;99.90;;;;;;5138951;27;20195;-67
2022/06/12 02:56:58;;;;;;;7.17;1.87;;;-20.40;99.90;;;;;;5137823;27;20173;-67
2022/06/12 02:59:36;;;;;;;2.40;1.97;;;-18.00;99.90;;;;;;5135358;27;20268;-65
2022/06/12 03:02:13;;;;;;;5.10;2.03;;;-15.60;99.90;;;;;;5138011;27;20162;-67
2022/06/12 03:04:54;;;;;;;4.67;1.97;;;-14.40;99.90;;;;;;5138549;27;20180;-68
2022/06/12 03:07:21;;;;;;;9.27;2.60;;;-14.30;99.90;;;;;;5138539;27;20165;-69
2022/06/12 03:09:47;;;;;;;5.17;3.20;;;-14.30;99.90;;;;;;5138395;27;20572;-65
2022/06/12 03:12:13;;;;;;;6.20;3.00;;;-15.40;99.90;;;;;;5137522;27;20169;-67
2022/06/12 03:14:39;;;;;;;6.73;1.93;;;-15.30;99.90;;;;;;5137394;27;20197;-68
2022/06/12 03:17:05;;;;;;;4.77;3.33;;;-15.80;99.90;;;;;;5138386;27;20203;-65
2022/06/12 03:19:42;;;;;;;7.50;2.30;;;-17.40;99.90;;;;;;5137183;27;20218;-66
2022/06/12 03:22:35;;;;;;;5.93;1.73;;;-15.40;99.90;;;;;;5138122;27;20195;-66
2022/06/12 03:25:04;;;;;;;6.80;2.47;;;-17.30;99.90;;;;;;5138417;27;20252;-67
2022/06/12 03:27:58;;;;;;;3.63;1.90;;;-16.30;99.90;;;;;;5137138;27;20580;-66
2022/06/12 03:30:38;;;;;;;7.83;1.73;;;-20.40;99.90;;;;;;5138032;27;20173;-64
2022/06/12 03:33:18;;;;;;;11.70;2.33;;;-14.70;99.90;;;;;;5138240;27;20479;-65
2022/06/12 03:36:20;;;;;;;3.87;2.23;;;-16.60;99.90;;;;;;5137551;27;20187;-65
2022/06/12 03:39:05;;;;;;;2.50;1.53;;;-10.60;99.90;;;;;;5137975;27;20173;-67
2022/06/12 03:41:55;;;;;;;4.10;1.93;;;-18.10;99.90;;;;;;5137896;27;20565;-64
2022/06/12 03:44:54;;;;;;;6.57;2.40;;;-19.00;99.90;;;;;;5137882;27;20171;-65
2022/06/12 03:47:30;;;;;;;13.13;2.87;;;-15.70;99.90;;;;;;5136405;27;20196;-68
2022/06/12 03:50:16;;;;;;;5.40;2.47;;;-16.60;99.90;;;;;;5137713;27;20169;-69
2022/06/12 03:52:58;;;;;;;9.23;4.33;;;-20.10;99.90;;;;;;5137713;27;20268;-63
2022/06/12 03:58:53;;;;;;;9.50;3.03;;;-16.80;99.90;;;;;;5137885;27;20174;-70
2022/06/12 04:01:19;;;;;;;14.57;4.63;;;-17.20;99.90;;;;;;5137481;27;20165;-74
2022/06/12 04:03:47;;;;;;;4.53;2.23;;;-16.10;99.90;;;;;;5137358;27;20244;-64
2022/06/12 04:06:19;;;;;;;1.93;1.57;;;-19.10;99.90;;;;;;5137663;27;20172;-72
2022/06/12 04:08:50;;;;;;;10.20;2.67;;;-17.80;99.90;;;;;;5137377;27;20200;-73
2022/06/12 04:11:19;;;;;;;4.50;2.10;;;-18.00;99.90;;;;;;5137317;27;20169;-68
2022/06/12 04:13:46;;;;;;;3.13;1.90;;;-20.90;99.90;;;;;;5136255;27;20234;-70
2022/06/12 04:16:12;;;;;;;9.67;2.20;;;-20.50;99.90;;;;;;5137175;27;20199;-72
2022/06/12 04:18:38;;;;;;;4.70;2.03;;;-16.90;99.90;;;;;;5136990;27;20189;-71
2022/06/12 04:21:26;;;;;;;7.80;2.30;;;-21.80;99.90;;;;;;5137343;27;20194;-73
2022/06/12 04:23:56;;;;;;;4.70;2.13;;;-17.40;99.90;;;;;;5137265;27;20166;-72
2022/06/12 04:26:42;;;;;;;4.33;2.53;;;-19.00;99.90;;;;;;5137108;27;20520;-69
2022/06/12 04:29:10;;;;;;;10.57;2.90;;;-17.10;99.90;;;;;;5137087;27;20169;-71
2022/06/12 04:31:38;;;;;;;4.20;2.27;;;-18.50;99.90;;;;;;5135967;27;20214;-67
2022/06/12 04:34:11;;;;;;;6.73;2.37;;;-16.50;99.90;;;;;;5136803;27;20207;-64
2022/06/12 04:36:38;;;;;;;9.43;2.30;;;-15.70;99.90;;;;;;5136890;27;20224;-67
2022/06/12 04:39:05;;;;;;;9.60;3.33;;;-24.40;99.90;;;;;;5137020;27;20236;-66
2022/06/12 04:41:35;;;;;;;9.87;2.77;;;-15.90;99.90;;;;;;5135947;27;20169;-67
2022/06/12 04:44:05;;;;;;;4.67;2.50;;;-25.40;99.90;;;;;;5135743;27;20699;-68
2022/06/12 04:46:33;;;;;;;7.37;2.77;;;-31.90;99.90;;;;;;5136668;27;20165;-68
2022/06/12 04:48:59;;;;;;;8.53;2.47;;;-28.30;99.90;;;;;;5135770;27;20176;-65
2022/06/12 04:51:26;;;;;;;4.77;2.87;;;-28.00;99.90;;;;;;5135789;27;20169;-66
2022/06/12 04:53:52;;;;;;;9.87;3.40;;;-28.80;99.90;;;;;;5136604;27;20277;-66
2022/06/12 04:56:21;;;;;;;5.53;2.87;;;-29.00;99.90;;;;;;5136815;27;20312;-66
2022/06/12 04:58:47;;;;;;;6.23;3.27;;;-27.30;99.90;;;;;;5136727;28;20170;-66
2022/06/12 05:01:13;;;;;;;5.57;3.50;;;-28.20;99.90;;;;;;5135382;28;20568;-67
2022/06/12 05:03:39;;;;;;;6.17;2.30;;;-31.90;99.90;;;;;;5135471;28;20256;-66
2022/06/12 05:06:06;;;;;;;12.10;3.57;;;-25.40;99.90;;;;;;5137162;27;20268;-66
2022/06/12 05:08:32;;;;;;;7.10;2.37;;;-28.00;99.90;;;;;;5136383;27;20185;-68
2022/06/12 05:10:59;;;;;;;16.20;2.83;;;-22.00;99.90;;;;;;5136699;28;20188;-66
2022/06/12 05:13:25;;;;;;;6.93;2.50;;;-29.00;99.90;;;;;;5136409;28;20268;-71
2022/06/12 05:15:50;;;;;;;13.07;3.33;;;-30.40;99.90;;;;;;5136337;28;20501;-67
2022/06/12 05:18:19;;;;;;;11.70;3.37;;;-34.80;99.90;;;;;;5136537;27;20161;-66
2022/06/12 05:20:46;;;;;;;6.63;3.13;;;-37.30;99.90;;;;;;5136415;27;20206;-64
2022/06/12 05:23:12;;;;;;;9.63;3.17;;;-38.00;99.90;;;;;;5136597;27;20196;-68
2022/06/12 05:25:38;;;;;;;9.77;3.43;;;-24.90;99.90;;;;;;5140476;27;20169;-71
2022/06/12 05:28:04;;;;;;;12.67;3.10;;;-25.40;99.90;;;;;;5140597;27;20192;-72
2022/06/12 05:30:33;;;;;;;8.47;2.87;;;-24.40;99.90;;;;;;5140208;27;20249;-68
2022/06/12 05:33:01;;;;;;;9.50;3.17;;;-26.60;99.90;;;;;;5140296;27;20217;-67
2022/06/12 05:35:28;;;;;;;12.43;3.43;;;-28.80;99.90;;;;;;5144130;27;20171;-68
2022/06/12 05:37:54;;;;;;;10.23;3.73;;;-28.80;99.90;;;;;;5140143;27;20228;-69
2022/06/12 05:40:25;;;;;;;11.77;3.70;;;-20.90;99.90;;;;;;5139168;27;20525;-65
2022/06/12 05:42:51;;;;;;;8.13;3.10;;;-24.70;99.90;;;;;;5139382;27;20569;-68
2022/06/12 05:45:20;;;;;;;11.23;3.80;;;-19.90;99.90;;;;;;5139816;27;20202;-74
2022/06/12 05:47:59;;;;;;;9.43;4.30;;;-21.70;99.90;;;;;;5140203;27;20166;-72
2022/06/12 05:50:29;;;;;;;19.87;4.10;;;-21.60;99.90;;;;;;5139961;27;20172;-73
2022/06/12 05:52:56;;;;;;;8.83;3.50;;;-20.50;99.90;;;;;;5139889;27;20173;-67
2022/06/12 05:55:22;;;;;;;10.10;3.80;;;-25.90;99.90;;;;;;5139954;27;20153;-73
2022/06/12 05:57:49;;;;;;;14.73;4.00;;;-25.20;99.90;;;;;;5139923;27;20180;-72
2022/06/12 06:00:27;;;;;;;10.93;4.70;;;-16.70;99.90;;;;;;5139549;27;20145;-64
2022/06/12 06:02:53;;;;;;;15.27;4.53;;;-15.30;99.90;;;;;;5139661;27;20245;-70
2022/06/12 06:05:19;;;;;;;9.83;3.20;;;-17.70;99.90;;;;;;5139491;27;20177;-63
2022/06/12 06:07:46;;;;;;;16.63;5.13;;;-17.00;99.90;;;;;;5139446;27;20191;-72
2022/06/12 06:10:17;;;;;;;13.17;4.53;;;-12.70;99.90;;;;;;5137570;27;20186;-72
2022/06/12 06:12:43;;;;;;;23.47;5.63;;;-24.50;99.90;;;;;;5136079;27;20181;-66
2022/06/12 06:15:10;;;;;;;15.37;5.20;;;-28.70;99.90;;;;;;5138673;27;20170;-68
2022/06/12 06:17:36;;;;;;;14.13;4.53;;;-32.50;99.90;;;;;;5139117;27;20173;-66
2022/06/12 06:20:03;;;;;;;12.07;3.70;;;-30.50;99.90;;;;;;5138765;27;20218;-64
2022/06/12 06:22:29;;;;;;;8.33;4.13;;;-28.40;99.90;;;;;;5139008;27;20177;-66
2022/06/12 06:24:54;;;;;;;21.40;5.37;;;-33.20;99.90;;;;;;5139032;27;20448;-69
2022/06/12 06:27:20;;;;;;;22.33;5.97;;;-29.50;99.90;;;;;;5138568;27;20165;-71
2022/06/12 06:29:46;;;;;;;11.00;4.63;;;-28.90;99.90;;;;;;5138313;27;20196;-69
2022/06/12 06:32:12;;;;;;;11.63;4.47;;;-23.00;99.90;;;;;;5138751;27;20177;-73
2022/06/12 06:34:39;;;;;;;16.60;4.77;;;-19.30;99.90;;;;;;5137078;27;20209;-71
2022/06/12 06:37:08;;;;;;;15.60;4.43;;;-20.20;99.90;;;;;;5137783;27;20185;-69
2022/06/12 06:39:34;;;;;;;11.50;4.57;;;-26.00;99.90;;;;;;5138523;27;20238;-68
2022/06/12 06:42:00;;;;;;;12.10;3.57;;;-24.50;99.90;;;;;;5138663;27;20154;-69
2022/06/12 06:47:11;;;;;;;13.73;4.63;;;-20.80;99.90;;;;;;5137117;27;20177;-71
2022/06/12 06:49:37;;;;;;;10.73;5.77;;;-27.40;99.90;;;;;;5138363;27;20154;-72
2022/06/12 06:52:04;;;;;;;18.23;5.90;;;-23.10;99.90;;;;;;5133565;27;20181;-66
2022/06/12 06:54:29;;;;;;;14.00;5.67;;;-20.60;99.90;;;;;;5138517;27;20197;-72
2022/06/12 06:56:55;;;;;;;16.67;6.03;;;-13.10;99.90;;;;;;5138389;27;20162;-71
2022/06/12 06:59:21;;;;;;;8.87;4.93;;;-14.60;99.90;;;;;;5138371;27;20565;-68
2022/06/12 07:01:47;;;;;;;14.03;3.93;;;-19.60;99.90;;;;;;5138030;27;20161;-72
2022/06/12 07:04:13;;;;;;;8.50;4.23;;;-18.70;99.90;;;;;;5138419;27;20180;-70
2022/06/12 07:06:40;;;;;;;12.63;4.50;;;-19.80;99.90;;;;;;5138455;27;20216;-72
2022/06/12 07:09:05;;;;;;;18.93;5.00;;;-26.40;99.90;;;;;;5138398;27;20553;-71
2022/06/12 07:11:32;;;;;;;18.07;5.17;;;-23.60;99.90;;;;;;5137918;27;20201;-74
2022/06/12 07:13:58;;;;;;;16.10;4.87;;;-40.00;99.90;;;;;;5138316;27;20204;-76
2022/06/12 07:16:26;;;;;;;11.53;4.93;;;-30.30;99.90;;;;;;5138170;27;20580;-73
2022/06/12 07:18:52;;;;;;;13.30;5.97;;;-24.40;99.90;;;;;;5138196;27;20177;-74
2022/06/12 07:21:18;;;;;;;11.57;4.53;;;-30.10;99.90;;;;;;5138003;27;20169;-70
2022/06/12 07:23:44;;;;;;;6.30;3.60;;;-30.20;99.90;;;;;;5137231;27;20198;-72
2022/06/12 07:26:21;;;;;;;25.43;6.03;;;-28.60;99.90;;;;;;5137976;27;20169;-73
2022/06/12 07:28:47;;;;;;;13.23;5.23;;;-30.00;99.90;;;;;;5138067;27;20221;-69
2022/06/12 07:31:13;;;;;;;14.30;4.27;;;-33.30;99.90;;;;;;5137512;27;20169;-72
2022/06/12 07:33:39;;;;;;;10.83;3.77;;;-28.80;99.90;;;;;;5137888;27;20189;-75
2022/06/12 07:36:07;;;;;;;15.00;4.97;;;-39.10;99.90;;;;;;5137751;27;20169;-70
2022/06/12 07:38:33;;;;;;;12.50;5.10;;;-19.70;99.90;;;;;;5137653;27;20185;-72
2022/06/12 07:41:03;;;;;;;15.70;4.97;;;-31.30;99.90;;;;;;5137358;27;20162;-73
2022/06/12 07:43:33;;;;;;;8.63;4.13;;;-37.30;99.90;;;;;;5137913;27;20248;-73
2022/06/12 07:46:01;;;;;;;19.83;5.37;;;-31.60;99.90;;;;;;5137798;27;20299;-73
2022/06/12 07:48:28;;;;;;;15.57;5.60;;;-29.10;99.90;;;;;;5137330;27;20168;-70
2022/06/12 07:50:54;;;;;;;14.60;5.83;;;-31.20;99.90;;;;;;5136556;27;20180;-70
2022/06/12 07:53:21;;;;;;;11.33;5.00;;;-40.00;99.90;;;;;;5137436;27;20276;-75
2022/06/12 07:55:48;;;;;;;10.70;4.47;;;-39.20;99.90;;;;;;5136408;27;20226;-72
2022/06/12 07:58:23;;;;;;;13.90;4.93;;;-31.80;99.90;;;;;;5135827;27;20178;-71
2022/06/12 08:00:52;;;;;;;9.97;4.23;;;-29.90;99.90;;;;;;5135438;27;20187;-73
2022/06/12 08:03:18;;;;;;;8.30;4.17;;;-40.00;99.90;;;;;;5133135;27;20512;-74
2022/06/12 08:05:44;;;;;;;7.77;4.20;;;-40.00;99.90;;;;;;5136382;27;20261;-73
2022/06/12 08:08:09;;;;;;;16.37;4.33;;;-40.00;99.50;;;;;;5134439;27;20304;-71
2022/06/12 08:10:36;;;;;;;12.73;4.33;;;-40.00;98.20;;;;;;5136134;27;20173;-70
2022/06/12 08:13:04;;;;;;;10.27;4.63;;;-31.20;99.90;;;;;;5134860;27;20248;-70
2022/06/12 08:15:31;;;;;;;18.77;5.00;;;-16.40;99.90;;;;;;5136454;27;20173;-70
2022/06/12 08:17:57;;;;;;;9.83;4.43;;;-20.60;99.90;;;;;;5137726;27;20176;-68
2022/06/12 08:20:25;;;;;;;9.60;4.87;;;-22.30;99.90;;;;;;5135966;27;20188;-70
2022/06/12 08:22:57;;;;;;;7.70;4.63;;;-40.00;98.50;;;;;;5134850;27;20173;-76
2022/06/12 08:25:24;;;;;;;11.07;4.67;;;-40.00;98.70;;;;;;5133922;27;20170;-76
2022/06/12 08:27:50;;;;;;;10.13;3.73;;;-40.00;97.10;;;;;;5137300;27;20169;-72
2022/06/12 08:30:16;;;;;;;11.03;4.90;;;-34.20;99.00;;;;;;5137392;27;20565;-73
2022/06/12 08:32:44;;;;;;;13.70;4.57;;;-40.00;97.10;;;;;;5136971;27;20165;-73
2022/06/12 08:35:14;;;;;;;6.63;4.23;;;-40.00;95.50;;;;;;5136841;27;20205;-73
2022/06/12 08:37:41;;;;;;;11.40;3.87;;;-38.60;95.80;;;;;;5136720;27;20185;-69
2022/06/12 08:40:35;;;;;;;16.73;5.20;;;-40.00;95.80;;;;;;5136532;27;20218;-70
2022/06/12 08:43:38;;;;;;;13.10;4.60;;;-33.80;98.20;;;;;;5136515;27;20252;-72
2022/06/12 08:46:34;;;;;;;12.13;4.30;;;-30.90;97.40;;;;;;5126932;27;20181;-71
2022/06/12 08:49:08;;;;;;;7.93;4.13;;;-28.90;97.60;;;;;;5123968;27;20185;-69
2022/06/12 08:51:42;;;;;;;14.07;3.83;;;-23.70;97.70;;;;;;5134599;27;20306;-70
2022/06/12 08:54:14;;;;;;;10.17;3.67;;;-19.90;99.80;;;;;;5132854;27;20616;-71
2022/06/12 08:57:01;;;;;;;6.53;3.50;;;-36.00;95.80;;;;;;5135280;27;20169;-70
2022/06/12 08:59:34;;;;;;;7.93;3.43;;;-40.00;93.00;;;;;;5132385;27;20207;-71
2022/06/12 09:02:09;;;;;;;10.73;2.47;;;-40.00;90.60;;;;;;5135212;28;20188;-69
2022/06/12 09:04:35;;;;;;;7.17;2.93;;;-22.50;93.90;;;;;;5134934;27;20281;-70
2022/06/12 09:07:18;;;;;;;8.80;3.47;;;-33.90;91.50;;;;;;5136164;28;20196;-69
2022/06/12 09:09:52;;;;;;;8.90;3.90;;;-37.80;90.90;;;;;;5135584;28;20157;-69
2022/06/12 09:12:30;;;;;;;6.17;2.77;;;-29.60;93.40;;;;;;5135281;28;20472;-68
2022/06/12 09:15:19;;;;;;;8.50;4.50;;;-26.10;93.80;;;;;;5136419;27;20193;-67
2022/06/12 09:18:11;;;;;;;9.13;3.33;;;-15.70;97.90;;;;;;5136296;28;20170;-67
2022/06/12 09:20:42;;;;;;;7.93;3.10;;;-31.70;92.90;;;;;;5135166;28;20161;-68
2022/06/12 09:23:36;;;;;;;3.73;2.90;;;-29.20;92.80;;;;;;5135918;28;20230;-68
2022/06/12 09:26:17;;;;;;;7.83;3.63;;;-20.40;95.50;;;;;;5126456;27;20173;-68
2022/06/12 09:29:13;;;;;;;5.17;2.93;;;-24.60;94.00;;;;;;5136073;27;20193;-69
2022/06/12 09:31:52;;;;;;;7.00;3.63;;;-24.60;94.50;;;;;;5132872;28;20230;-67
2022/06/12 09:34:34;;;;;;;8.07;3.40;;;-30.30;92.80;;;;;;5134588;27;20638;-68
2022/06/12 09:40:33;;;;;;;5.50;3.37;;;-31.00;91.20;;;;;;5116905;28;20176;-67
2022/06/12 09:43:15;;;;;;;7.33;3.80;;;-25.70;92.00;;;;;;5133569;28;20174;-67
2022/06/12 09:45:59;;;;;;;11.37;2.90;;;-16.00;93.20;;;;;;5135028;28;20588;-69
2022/06/12 09:48:37;;;;;;;5.17;2.10;;;-9.30;96.60;;;;;;5135796;27;20628;-69
2022/06/12 09:51:18;;;;;;;3.83;1.73;;;-18.80;90.80;;;;;;5135469;27;20158;-70
2022/06/12 09:53:52;;;;;;;6.10;3.57;;;-24.00;83.00;;;;;;5150133;27;20228;-69
2022/06/12 09:56:33;;;;;;;7.93;2.67;;;-14.60;93.10;;;;;;5135769;27;20200;-67
2022/06/12 09:59:17;;;;;;;4.87;2.13;;;-22.50;90.50;;;;;;5131084;28;20181;-69
2022/06/12 10:01:47;;;;;;;10.37;2.57;;;-23.80;89.60;;;;;;5134498;27;20580;-68
2022/06/12 10:04:49;;;;;;;10.93;3.87;;;-27.20;88.90;;;;;;5127897;28;20647;-68
2022/06/12 10:07:30;;;;;;;17.13;7.10;;;-35.40;80.50;;;;;;5135710;27;20222;-68
2022/06/12 10:10:10;;;;;;;18.63;8.70;;;-29.50;84.90;;;;;;5135769;27;20169;-68
2022/06/12 10:12:44;;;;;;;24.90;12.17;;;-19.50;90.60;;;;;;5140875;27;20165;-69
2022/06/12 10:15:23;;;;;;;15.83;4.77;;;-35.20;81.60;;;;;;5139636;27;20217;-69
2022/06/12 10:17:59;;;;;;;8.47;4.13;;;-32.90;78.90;;;;;;5139504;27;20169;-67
2022/06/12 10:20:32;;;;;;;8.30;4.20;;;-28.70;82.00;;;;;;5138044;27;20169;-66
2022/06/12 10:22:59;;;;;;;11.70;5.27;;;-18.50;90.10;;;;;;5139086;27;20191;-66
2022/06/12 10:25:38;;;;;;;6.67;2.87;;;-14.30;92.20;;;;;;5119676;27;20188;-68
2022/06/12 10:28:06;;;;;;;15.13;4.13;;;-20.60;88.70;;;;;;5126731;27;20649;-64
2022/06/12 10:30:31;;;;;;;4.30;2.10;;;-22.20;85.90;;;;;;5138876;27;20161;-67
2022/06/12 10:33:08;;;;;;;8.43;2.47;;;-21.40;84.30;;;;;;5138998;27;20592;-66
2022/06/12 10:35:45;;;;;;;6.53;2.93;;;-21.00;86.60;;;;;;5138767;27;20213;-68
2022/06/12 10:38:12;;;;;;;9.53;3.60;;;-25.10;81.10;;;;;;5138499;27;20180;-66
2022/06/12 10:40:47;;;;;;;3.77;2.23;;;-18.10;86.80;;;;;;5135755;27;20310;-66
2022/06/12 10:43:28;;;;;;;5.13;2.80;;;-15.40;86.60;;;;;;5138542;27;20157;-65
2022/06/12 10:46:02;;;;;;;6.13;2.93;;;-12.80;88.50;;;;;;5136970;27;20169;-66
2022/06/12 10:48:31;;;;;;;5.33;2.37;;;-20.40;83.90;;;;;;5136971;27;20248;-66
2022/06/12 10:51:26;;;;;;;6.97;2.87;;;-15.70;85.50;;;;;;5137353;27;20725;-63
2022/06/12 10:54:01;;;;;;;3.73;1.90;;;-22.90;79.90;;;;;;5135490;27;20201;-68
2022/06/12 10:56:44;;;;;;;4.87;2.27;;;-30.20;72.60;;;;;;5135041;27;20184;-65
2022/06/12 10:59:31;;;;;;;4.77;2.27;;;-25.70;75.60;;;;;;5134689;27;20166;-65
2022/06/12 11:02:09;;;;;;;5.47;2.40;;;-35.00;70.00;;;;;;5133844;27;20177;-72
2022/06/12 11:04:48;;;;;;;6.73;2.17;;;-25.70;75.80;;;;;;5135131;27;20177;-66
2022/06/12 11:07:30;;;;;;;6.33;3.10;;;22.50;97.30;;;;;;5135831;27;20176;-68
2022/06/12 11:10:21;;;;;;;9.27;2.73;;;22.50;97.20;;;;;;5135606;27;20177;-67
2022/06/12 11:12:56;;;;;;;3.80;2.20;;;22.40;97.50;;;;;;5137485;27;20192;-68
2022/06/12 11:15:39;;;;;;;6.63;2.40;;;22.40;97.50;;;;;;5137408;27;20215;-69
2022/06/12 11:18:30;;;;;;;6.47;2.73;;;22.30;97.60;;;;;;5134842;27;20164;-69
2022/06/12 11:21:17;;;;;;;5.93;2.40;;;22.10;97.70;;;;;;5134880;27;20165;-68
2022/06/12 11:24:08;;;;;;;6.60;2.53;;;22.20;97.30;;;;;;5133655;27;20229;-70
2022/06/12 11:26:52;;;;;;;6.03;2.07;;;22.00;97.00;;;;;;5136332;27;20256;-69
2022/06/12 11:29:40;;;;;;;6.67;2.43;;;21.90;97.00;;;;;;5136744;27;20222;-69
2022/06/12 11:32:57;;;;;;;6.50;2.10;;;22.00;97.60;;;;;;5134835;27;20169;-69
2022/06/12 11:35:37;;;;;;;10.77;5.03;;;22.40;97.40;;;;;;5129307;27;20198;-69
2022/06/12 11:38:23;;;;;;;6.77;2.90;;;22.40;96.70;;;;;;5122537;27;20181;-73
2022/06/12 11:41:16;;;;;;;4.50;2.87;;;22.60;95.70;;;;;;5137715;27;20161;-69
2022/06/12 11:43:51;;;;;;;5.33;2.67;;;22.50;95.60;;;;;;5137551;27;20205;-69
2022/06/12 11:46:50;;;;;;;3.87;1.83;;;22.30;96.00;;;;;;5136909;27;20180;-67
2022/06/12 11:49:30;;;;;;;7.07;2.30;;;22.40;96.60;;;;;;5138080;27;20209;-68
2022/06/12 11:52:19;;;;;;;5.40;2.77;;;22.50;96.30;;;;;;5137932;27;20368;-69
2022/06/12 11:54:45;;;;;;;5.53;2.23;;;-16.00;73.10;;;;;;5136825;27;20193;-68
2022/06/12 11:57:27;;;;;;;2.83;1.83;;;-27.70;64.60;;;;;;5137740;27;20161;-68
2022/06/12 12:00:11;;;;;;;4.57;2.63;;;24.40;92.50;;;;;;5140010;27;20256;-69
2022/06/12 12:02:52;;;;;;;4.70;2.10;;;24.30;92.50;;;;;;5139341;27;20176;-69
2022/06/12 12:05:29;;;;;;;7.00;2.93;;;24.10;91.10;;;;;;5137661;27;20185;-68
2022/06/12 12:08:17;;;;;;;6.73;3.47;;;24.20;92.00;;;;;;5136183;27;20200;-69
2022/06/12 12:10:54;;;;;;;3.77;2.33;;;24.60;92.30;;;;;;5137613;27;20249;-70
2022/06/12 12:13:41;;;;;;;3.77;2.43;;;-39.90;53.70;;;;;;5137293;27;20192;-69
2022/06/12 12:16:41;;;;;;;4.73;2.10;;;25.00;90.20;;;;;;5137091;27;20177;-69
2022/06/12 12:19:36;;;;;;;6.80;3.23;;;26.20;90.30;;;;;;5138697;27;20260;-68
2022/06/12 12:22:08;;;;;;;5.13;2.63;;;25.90;89.40;;;;;;5121884;27;20228;-69
2022/06/12 12:24:49;;;;;;;9.17;3.67;;;25.70;88.80;;;;;;5137860;27;20446;-69
2022/06/12 12:27:39;;;;;;;3.23;2.17;;;25.10;90.10;;;;;;5116761;28;20197;-70
2022/06/12 12:30:21;;;;;;;2.97;2.07;;;25.90;91.20;;;;;;5117420;28;20474;-70
2022/06/12 12:32:53;;;;;;;5.67;2.57;;;26.50;85.30;;;;;;5116572;28;20239;-69
2022/06/12 12:41:13;;;;;;;4.03;2.30;;;26.20;85.50;;;;;;5137074;27;20169;-67
2022/06/12 12:43:54;;;;;;;4.43;1.80;;;27.10;83.50;;;;;;5116488;28;20602;-67
2022/06/12 12:46:22;;;;;;;5.13;2.67;;;26.90;79.50;;;;;;5116268;28;20202;-69
2022/06/12 12:48:50;;;;;;;6.13;2.87;;;26.50;83.00;;;;;;5115213;28;20178;-68
2022/06/12 12:51:27;;;;;;;3.70;2.37;;;26.50;82.40;;;;;;5116444;28;20166;-69
2022/06/12 12:53:53;;;;;;;4.80;1.97;;;-26.00;50.90;;;;;;5121302;27;20196;-68
2022/06/12 12:56:30;;;;;;;4.53;2.07;;;-12.70;57.10;;;;;;5136814;27;20165;-68
2022/06/12 12:59:03;;;;;;;4.83;2.13;;;-23.10;53.10;;;;;;5136709;27;20264;-68
2022/06/12 13:01:39;;;;;;;9.67;2.77;;;-14.90;54.90;;;;;;5136411;27;20256;-68
2022/06/12 13:04:19;;;;;;;4.67;2.20;;;-11.00;55.70;;;;;;5136695;27;20210;-68
2022/06/12 13:06:54;;;;;;;7.67;6.63;;;19.50;70.80;;;;;;5135515;27;20185;-68
2022/06/12 13:09:31;;;;;;;12.87;9.53;;;28.30;76.60;;;;;;5135565;27;20183;-68
2022/06/12 13:12:14;;;;;;;14.90;9.20;;;28.00;79.00;;;;;;5135599;27;20169;-69
2022/06/12 13:15:00;;;;;;;59.40;40.10;;;28.30;79.00;;;;;;5136313;27;20224;-69
2022/06/12 13:17:30;;;;;;;12.63;6.23;;;27.80;74.90;;;;;;5136758;27;20199;-68
2022/06/12 13:20:29;;;;;;;6.80;4.40;;;27.60;77.90;;;;;;5136470;27;20172;-68
2022/06/12 13:23:02;;;;;;;16.33;3.93;;;27.60;76.90;;;;;;5135498;28;20185;-68
2022/06/12 13:25:42;;;;;;;3.87;2.33;;;27.80;77.80;;;;;;5137940;27;20176;-69
2022/06/12 13:28:29;;;;;;;5.45;1.75;;;28.90;74.20;;;;;;5147311;27;20267;-68
2022/06/12 13:30:56;;;;;;;7.72;3.95;;;29.00;72.30;;;;;;5116027;28;20171;-70
2022/06/12 13:33:28;;;;;;;6.75;2.50;;;-30.00;40.30;;;;;;5123897;28;20192;-69